sensor_id;sensor_type;location;lat;lon;timestamp;pressure;altitude;pressure_sealevel;temperature;humidity
21879;BME280;27908;42.708;23.278;2023-02-20T00:02:24;63597.78;;;10.21;76.63
21879;BME280;27908;42.708;23.278;2023-02-20T00:04:50;63591.19;;;10.25;75.93
21879;BME280;27908;42.708;23.278;2023-02-20T00:07:15;63589.44;;;10.03;76.41
21879;BME280;27908;42.708;23.278;2023-02-20T00:09:41;63597.19;;;10.13;77.83
21879;BME280;27908;42.708;23.278;2023-02-20T00:12:06;63585.50;;;10.14;77.52
21879;BME280;27908;42.708;23.278;2023-02-20T00:14:32;63571.13;;;10.03;77.21
21879;BME280;27908;42.708;23.278;2023-02-20T00:16:57;63580.91;;;10.15;78.31
21879;BME280;27908;42.708;23.278;2023-02-20T00:19:22;63613.03;;;9.72;78.55
21879;BME280;27908;42.708;23.278;2023-02-20T00:21:49;63588.44;;;10.05;79.01
21879;BME280;27908;42.708;23.278;2023-02-20T00:24:16;63547.69;;;10.02;78.62
21879;BME280;27908;42.708;23.278;2023-02-20T00:26:49;63575.63;;;9.95;79.21
21879;BME280;27908;42.708;23.278;2023-02-20T00:29:20;63570.84;;;9.78;80.60
21879;BME280;27908;42.708;23.278;2023-02-20T00:31:50;63583.69;;;9.88;81.25
21879;BME280;27908;42.708;23.278;2023-02-20T00:34:16;63509.75;;;9.73;81.82
21879;BME280;27908;42.708;23.278;2023-02-20T00:36:42;63534.13;;;9.72;82.52
21879;BME280;27908;42.708;23.278;2023-02-20T00:39:07;63586.63;;;9.79;83.13
21879;BME280;27908;42.708;23.278;2023-02-20T00:41:32;63574.00;;;9.89;82.77
21879;BME280;27908;42.708;23.278;2023-02-20T00:43:58;63572.41;;;9.80;82.70
21879;BME280;27908;42.708;23.278;2023-02-20T00:46:23;63570.50;;;9.93;82.79
21879;BME280;27908;42.708;23.278;2023-02-20T00:48:49;63577.03;;;9.84;82.73
21879;BME280;27908;42.708;23.278;2023-02-20T00:51:15;63565.88;;;9.88;82.30
21879;BME280;27908;42.708;23.278;2023-02-20T00:53:40;63575.56;;;9.90;82.98
21879;BME280;27908;42.708;23.278;2023-02-20T00:56:06;63565.84;;;9.86;83.45
21879;BME280;27908;42.708;23.278;2023-02-20T00:58:31;63516.28;;;9.67;82.99
21879;BME280;27908;42.708;23.278;2023-02-20T01:00:57;63546.81;;;9.67;84.35
21879;BME280;27908;42.708;23.278;2023-02-20T01:03:22;63517.28;;;9.63;84.80
21879;BME280;27908;42.708;23.278;2023-02-20T01:05:48;63512.78;;;9.71;84.70
21879;BME280;27908;42.708;23.278;2023-02-20T01:08:13;63536.06;;;9.59;84.63
21879;BME280;27908;42.708;23.278;2023-02-20T01:10:39;63572.28;;;9.70;85.66
21879;BME280;27908;42.708;23.278;2023-02-20T01:13:04;63511.72;;;9.68;86.01
21879;BME280;27908;42.708;23.278;2023-02-20T01:15:29;63526.50;;;9.70;85.33
21879;BME280;27908;42.708;23.278;2023-02-20T01:17:55;63513.22;;;9.67;85.24
21879;BME280;27908;42.708;23.278;2023-02-20T01:20:20;63485.19;;;9.59;85.97
21879;BME280;27908;42.708;23.278;2023-02-20T01:22:46;63548.28;;;9.61;86.88
21879;BME280;27908;42.708;23.278;2023-02-20T01:25:11;63537.13;;;9.65;86.63
21879;BME280;27908;42.708;23.278;2023-02-20T01:27:37;63553.91;;;9.64;86.23
21879;BME280;27908;42.708;23.278;2023-02-20T01:30:02;63507.00;;;9.56;85.85
21879;BME280;27908;42.708;23.278;2023-02-20T01:32:28;63537.63;;;9.66;85.96
21879;BME280;27908;42.708;23.278;2023-02-20T01:34:53;63531.09;;;9.74;86.66
21879;BME280;27908;42.708;23.278;2023-02-20T01:37:19;63534.19;;;9.77;87.20
21879;BME280;27908;42.708;23.278;2023-02-20T01:39:46;63582.09;;;9.82;86.46
21879;BME280;27908;42.708;23.278;2023-02-20T01:42:17;63567.84;;;9.85;86.21
21879;BME280;27908;42.708;23.278;2023-02-20T01:44:43;63550.63;;;9.91;86.65
21879;BME280;27908;42.708;23.278;2023-02-20T01:47:11;63560.31;;;9.93;86.53
21879;BME280;27908;42.708;23.278;2023-02-20T01:50:02;63564.78;;;9.82;87.50
21879;BME280;27908;42.708;23.278;2023-02-20T01:52:32;63563.22;;;9.78;87.52
21879;BME280;27908;42.708;23.278;2023-02-20T01:55:17;63532.28;;;9.88;87.71
21879;BME280;27908;42.708;23.278;2023-02-20T01:57:55;63532.03;;;9.65;88.67
21879;BME280;27908;42.708;23.278;2023-02-20T02:00:23;63542.38;;;9.80;89.50
21879;BME280;27908;42.708;23.278;2023-02-20T02:02:51;63495.84;;;9.57;89.60
21879;BME280;27908;42.708;23.278;2023-02-20T02:05:19;63512.63;;;9.59;90.98
21879;BME280;27908;42.708;23.278;2023-02-20T02:07:46;63518.66;;;9.53;90.52
21879;BME280;27908;42.708;23.278;2023-02-20T02:10:16;63491.63;;;9.44;91.15
21879;BME280;27908;42.708;23.278;2023-02-20T02:12:46;63483.50;;;9.46;90.68
21879;BME280;27908;42.708;23.278;2023-02-20T02:15:18;63471.66;;;9.29;90.46
21879;BME280;27908;42.708;23.278;2023-02-20T02:43:13;63404.78;;;8.53;94.03
21879;BME280;27908;42.708;23.278;2023-02-20T02:48:27;63377.75;;;8.44;94.61
21879;BME280;27908;42.708;23.278;2023-02-20T02:51:02;63380.19;;;8.34;95.30
21879;BME280;27908;42.708;23.278;2023-02-20T02:53:31;63370.00;;;8.29;95.47
21879;BME280;27908;42.708;23.278;2023-02-20T02:55:56;63359.88;;;8.32;96.97
21879;BME280;27908;42.708;23.278;2023-02-20T02:58:42;63366.88;;;8.24;97.04
21879;BME280;27908;42.708;23.278;2023-02-20T03:01:07;63345.03;;;8.22;98.10
21879;BME280;27908;42.708;23.278;2023-02-20T03:03:36;63323.72;;;8.21;98.02
21879;BME280;27908;42.708;23.278;2023-02-20T03:06:17;63351.88;;;8.00;98.75
21879;BME280;27908;42.708;23.278;2023-02-20T03:08:59;63344.47;;;8.17;98.26
21879;BME280;27908;42.708;23.278;2023-02-20T03:11:27;63322.09;;;8.13;98.93
21879;BME280;27908;42.708;23.278;2023-02-20T03:19:49;63333.88;;;8.24;96.33
21879;BME280;27908;42.708;23.278;2023-02-20T03:22:52;63363.00;;;8.40;94.50
21879;BME280;27908;42.708;23.278;2023-02-20T03:25:25;63360.47;;;8.42;93.55
21879;BME280;27908;42.708;23.278;2023-02-20T03:27:57;63364.53;;;8.41;93.10
21879;BME280;27908;42.708;23.278;2023-02-20T03:33:12;63334.53;;;8.39;91.96
21879;BME280;27908;42.708;23.278;2023-02-20T03:36:00;63558.97;;;8.38;92.46
21879;BME280;27908;42.708;23.278;2023-02-20T03:38:51;63380.25;;;8.39;92.13
21879;BME280;27908;42.708;23.278;2023-02-20T03:41:39;63387.84;;;8.37;92.84
21879;BME280;27908;42.708;23.278;2023-02-20T03:44:25;63346.66;;;8.31;92.92
21879;BME280;27908;42.708;23.278;2023-02-20T03:46:52;63365.81;;;8.20;92.76
21879;BME280;27908;42.708;23.278;2023-02-20T03:49:22;63319.13;;;8.19;93.51
21879;BME280;27908;42.708;23.278;2023-02-20T03:51:50;63320.66;;;8.21;94.10
21879;BME280;27908;42.708;23.278;2023-02-20T03:54:21;63344.41;;;8.10;93.21
21879;BME280;27908;42.708;23.278;2023-02-20T03:56:49;63283.94;;;8.05;94.11
21879;BME280;27908;42.708;23.278;2023-02-20T03:59:27;63324.13;;;8.12;94.58
21879;BME280;27908;42.708;23.278;2023-02-20T04:01:56;63323.09;;;8.11;93.77
21879;BME280;27908;42.708;23.278;2023-02-20T04:04:36;63358.19;;;8.18;93.21
21879;BME280;27908;42.708;23.278;2023-02-20T04:07:09;63304.75;;;8.06;92.81
21879;BME280;27908;42.708;23.278;2023-02-20T04:09:40;63320.59;;;8.14;92.69
21879;BME280;27908;42.708;23.278;2023-02-20T04:14:37;63330.34;;;8.25;93.34
21879;BME280;27908;42.708;23.278;2023-02-20T04:17:09;63344.03;;;8.24;92.83
21879;BME280;27908;42.708;23.278;2023-02-20T04:19:36;63414.66;;;8.28;93.00
21879;BME280;27908;42.708;23.278;2023-02-20T04:22:03;63344.03;;;8.24;93.04
21879;BME280;27908;42.708;23.278;2023-02-20T04:24:39;63338.00;;;8.30;91.28
21879;BME280;27908;42.708;23.278;2023-02-20T04:27:06;63320.25;;;8.33;92.38
21879;BME280;27908;42.708;23.278;2023-02-20T04:29:32;63378.03;;;8.22;92.60
21879;BME280;27908;42.708;23.278;2023-02-20T04:31:57;63384.75;;;8.34;92.92
21879;BME280;27908;42.708;23.278;2023-02-20T04:34:23;63299.28;;;8.15;93.12
21879;BME280;27908;42.708;23.278;2023-02-20T04:36:50;63349.66;;;8.27;93.00
21879;BME280;27908;42.708;23.278;2023-02-20T04:39:18;63375.97;;;8.20;93.83
21879;BME280;27908;42.708;23.278;2023-02-20T04:41:46;63362.19;;;8.15;94.19
21879;BME280;27908;42.708;23.278;2023-02-20T04:44:11;63320.00;;;8.08;94.25
21879;BME280;27908;42.708;23.278;2023-02-20T04:46:55;63331.06;;;7.99;92.87
21879;BME280;27908;42.708;23.278;2023-02-20T04:49:21;63319.94;;;8.03;93.33
21879;BME280;27908;42.708;23.278;2023-02-20T04:51:46;63336.53;;;7.90;91.80
21879;BME280;27908;42.708;23.278;2023-02-20T04:54:11;63293.38;;;7.85;91.23
21879;BME280;27908;42.708;23.278;2023-02-20T04:56:37;63308.13;;;7.89;90.24
21879;BME280;27908;42.708;23.278;2023-02-20T04:59:02;63351.22;;;7.87;88.71
21879;BME280;27908;42.708;23.278;2023-02-20T05:01:27;63314.19;;;7.88;88.10
21879;BME280;27908;42.708;23.278;2023-02-20T05:03:53;63282.53;;;7.70;88.00
21879;BME280;27908;42.708;23.278;2023-02-20T05:06:18;63268.81;;;7.66;85.97
21879;BME280;27908;42.708;23.278;2023-02-20T05:08:44;63313.63;;;7.82;85.63
21879;BME280;27908;42.708;23.278;2023-02-20T05:11:09;63267.34;;;7.72;85.36
21879;BME280;27908;42.708;23.278;2023-02-20T05:13:34;63282.00;;;7.67;85.79
21879;BME280;27908;42.708;23.278;2023-02-20T05:16:00;63284.06;;;7.69;84.22
21879;BME280;27908;42.708;23.278;2023-02-20T05:18:27;63266.34;;;7.71;83.22
21879;BME280;27908;42.708;23.278;2023-02-20T05:20:52;63313.00;;;7.72;82.34
21879;BME280;27908;42.708;23.278;2023-02-20T05:23:36;63269.28;;;7.64;83.16
21879;BME280;27908;42.708;23.278;2023-02-20T05:26:01;63458.72;;;7.46;83.29
21879;BME280;27908;42.708;23.278;2023-02-20T05:28:27;63290.41;;;7.48;83.07
21879;BME280;27908;42.708;23.278;2023-02-20T05:30:52;63284.94;;;7.57;83.56
21879;BME280;27908;42.708;23.278;2023-02-20T05:33:18;63246.31;;;7.49;83.43
21879;BME280;27908;42.708;23.278;2023-02-20T05:35:43;63294.56;;;7.54;83.66
21879;BME280;27908;42.708;23.278;2023-02-20T05:38:09;63267.06;;;7.45;84.54
21879;BME280;27908;42.708;23.278;2023-02-20T05:40:34;63235.75;;;7.56;86.04
21879;BME280;27908;42.708;23.278;2023-02-20T05:42:59;63310.28;;;7.55;86.12
21879;BME280;27908;42.708;23.278;2023-02-20T05:45:25;63243.91;;;7.62;87.18
21879;BME280;27908;42.708;23.278;2023-02-20T05:47:50;63286.53;;;7.64;87.67
21879;BME280;27908;42.708;23.278;2023-02-20T05:50:16;63255.09;;;7.63;87.78
21879;BME280;27908;42.708;23.278;2023-02-20T05:52:41;63248.03;;;7.68;87.86
21879;BME280;27908;42.708;23.278;2023-02-20T05:55:07;63306.94;;;7.74;88.05
21879;BME280;27908;42.708;23.278;2023-02-20T05:57:32;63273.50;;;7.78;87.15
21879;BME280;27908;42.708;23.278;2023-02-20T05:59:58;63291.28;;;7.80;87.29
21879;BME280;27908;42.708;23.278;2023-02-20T06:02:23;63293.91;;;7.90;85.82
21879;BME280;27908;42.708;23.278;2023-02-20T06:04:48;63334.59;;;7.98;84.59
21879;BME280;27908;42.708;23.278;2023-02-20T06:07:14;63348.25;;;7.94;83.87
21879;BME280;27908;42.708;23.278;2023-02-20T06:09:43;63389.16;;;8.18;81.10
21879;BME280;27908;42.708;23.278;2023-02-20T06:12:08;63320.78;;;8.33;78.13
21879;BME280;27908;42.708;23.278;2023-02-20T06:14:34;63366.56;;;8.41;76.46
21879;BME280;27908;42.708;23.278;2023-02-20T06:17:00;63401.13;;;8.45;76.25
21879;BME280;27908;42.708;23.278;2023-02-20T06:19:25;63358.53;;;8.50;77.08
21879;BME280;27908;42.708;23.278;2023-02-20T06:21:52;63379.94;;;8.56;75.37
21879;BME280;27908;42.708;23.278;2023-02-20T06:24:18;63402.81;;;8.61;75.29
21879;BME280;27908;42.708;23.278;2023-02-20T06:26:44;63396.66;;;8.55;74.90
21879;BME280;27908;42.708;23.278;2023-02-20T06:29:10;63428.81;;;8.69;75.76
21879;BME280;27908;42.708;23.278;2023-02-20T06:31:36;63386.63;;;8.65;73.77
21879;BME280;27908;42.708;23.278;2023-02-20T06:34:01;63402.53;;;8.80;74.38
21879;BME280;27908;42.708;23.278;2023-02-20T06:36:30;63420.84;;;8.83;74.29
21879;BME280;27908;42.708;23.278;2023-02-20T06:38:56;63480.41;;;8.94;74.14
21879;BME280;27908;42.708;23.278;2023-02-20T06:41:22;63454.50;;;8.93;72.50
21879;BME280;27908;42.708;23.278;2023-02-20T06:43:47;63453.00;;;8.97;72.81
21879;BME280;27908;42.708;23.278;2023-02-20T06:46:12;63421.00;;;8.98;73.49
21879;BME280;27908;42.708;23.278;2023-02-20T06:48:45;63429.03;;;8.88;71.93
21879;BME280;27908;42.708;23.278;2023-02-20T06:51:11;63431.00;;;8.83;72.46
21879;BME280;27908;42.708;23.278;2023-02-20T06:53:36;63391.81;;;8.77;71.81
21879;BME280;27908;42.708;23.278;2023-02-20T06:56:08;63373.41;;;8.64;71.63
21879;BME280;27908;42.708;23.278;2023-02-20T06:58:34;63375.44;;;8.64;72.22
21879;BME280;27908;42.708;23.278;2023-02-20T07:00:59;63393.13;;;8.56;71.94
21879;BME280;27908;42.708;23.278;2023-02-20T07:03:25;63386.50;;;8.55;72.69
21879;BME280;27908;42.708;23.278;2023-02-20T07:05:50;63405.94;;;8.66;71.77
21879;BME280;27908;42.708;23.278;2023-02-20T07:08:15;63451.81;;;8.81;71.98
21879;BME280;27908;42.708;23.278;2023-02-20T07:10:41;63424.88;;;8.80;70.98
21879;BME280;27908;42.708;23.278;2023-02-20T07:13:06;63424.00;;;8.93;68.90
21879;BME280;27908;42.708;23.278;2023-02-20T07:15:32;63446.88;;;8.93;68.35
21879;BME280;27908;42.708;23.278;2023-02-20T07:17:57;63463.16;;;8.94;67.21
21879;BME280;27908;42.708;23.278;2023-02-20T07:20:23;63471.34;;;9.02;66.47
21879;BME280;27908;42.708;23.278;2023-02-20T07:22:50;63461.72;;;9.03;66.70
21879;BME280;27908;42.708;23.278;2023-02-20T07:25:15;63470.41;;;9.09;65.49
21879;BME280;27908;42.708;23.278;2023-02-20T07:27:41;63430.75;;;9.10;66.04
21879;BME280;27908;42.708;23.278;2023-02-20T07:30:06;63436.78;;;9.01;65.52
21879;BME280;27908;42.708;23.278;2023-02-20T07:32:32;63425.59;;;9.00;65.30
21879;BME280;27908;42.708;23.278;2023-02-20T07:34:57;63426.91;;;8.79;64.67
21879;BME280;27908;42.708;23.278;2023-02-20T07:37:23;63410.47;;;8.63;65.65
21879;BME280;27908;42.708;23.278;2023-02-20T07:39:48;63428.97;;;8.84;64.69
21879;BME280;27908;42.708;23.278;2023-02-20T07:42:16;63392.69;;;8.63;65.29
21879;BME280;27908;42.708;23.278;2023-02-20T07:44:43;63388.06;;;8.59;64.42
21879;BME280;27908;42.708;23.278;2023-02-20T07:47:11;63352.84;;;8.40;64.46
21879;BME280;27908;42.708;23.278;2023-02-20T07:49:36;63380.94;;;8.57;64.53
21879;BME280;27908;42.708;23.278;2023-02-20T07:52:02;63370.84;;;8.62;65.17
21879;BME280;27908;42.708;23.278;2023-02-20T07:54:27;63387.56;;;8.58;63.92
21879;BME280;27908;42.708;23.278;2023-02-20T07:56:53;63423.22;;;8.68;64.15
21879;BME280;27908;42.708;23.278;2023-02-20T07:59:19;63422.38;;;8.82;61.85
21879;BME280;27908;42.708;23.278;2023-02-20T08:01:44;63425.91;;;8.83;63.11
21879;BME280;27908;42.708;23.278;2023-02-20T08:04:10;63373.03;;;8.79;62.01
21879;BME280;27908;42.708;23.278;2023-02-20T08:06:35;63480.91;;;8.92;62.85
21879;BME280;27908;42.708;23.278;2023-02-20T08:09:01;63448.53;;;9.07;61.24
21879;BME280;27908;42.708;23.278;2023-02-20T08:11:27;63463.31;;;9.12;59.98
21879;BME280;27908;42.708;23.278;2023-02-20T08:13:52;63448.56;;;9.10;59.66
21879;BME280;27908;42.708;23.278;2023-02-20T08:16:20;63437.88;;;9.07;60.07
21879;BME280;27908;42.708;23.278;2023-02-20T08:18:47;63464.31;;;9.10;59.38
21879;BME280;27908;42.708;23.278;2023-02-20T08:21:12;63467.91;;;9.11;60.31
21879;BME280;27908;42.708;23.278;2023-02-20T08:23:37;63513.41;;;9.35;59.49
21879;BME280;27908;42.708;23.278;2023-02-20T08:26:04;63504.78;;;9.37;59.46
21879;BME280;27908;42.708;23.278;2023-02-20T08:28:30;63548.50;;;9.35;58.28
21879;BME280;27908;42.708;23.278;2023-02-20T08:30:55;63519.13;;;9.46;58.03
21879;BME280;27908;42.708;23.278;2023-02-20T08:33:20;63478.88;;;9.41;58.48
21879;BME280;27908;42.708;23.278;2023-02-20T08:35:46;63534.41;;;9.48;57.78
21879;BME280;27908;42.708;23.278;2023-02-20T08:38:33;63519.72;;;9.56;58.12
21879;BME280;27908;42.708;23.278;2023-02-20T08:41:01;63589.38;;;9.52;58.03
21879;BME280;27908;42.708;23.278;2023-02-20T08:43:26;63540.59;;;9.57;58.93
21879;BME280;27908;42.708;23.278;2023-02-20T08:45:52;63564.72;;;9.77;58.04
21879;BME280;27908;42.708;23.278;2023-02-20T08:48:17;63553.00;;;9.73;58.30
21879;BME280;27908;42.708;23.278;2023-02-20T08:50:43;63576.59;;;9.91;56.52
21879;BME280;27908;42.708;23.278;2023-02-20T08:53:09;63554.84;;;10.04;56.37
21879;BME280;27908;42.708;23.278;2023-02-20T08:55:35;63553.94;;;10.16;56.84
21879;BME280;27908;42.708;23.278;2023-02-20T08:58:00;63608.47;;;10.19;56.92
21879;BME280;27908;42.708;23.278;2023-02-20T09:00:27;63649.81;;;10.29;55.54
21879;BME280;27908;42.708;23.278;2023-02-20T09:02:52;63601.25;;;10.12;55.04
21879;BME280;27908;42.708;23.278;2023-02-20T09:05:18;63611.50;;;10.20;54.79
21879;BME280;27908;42.708;23.278;2023-02-20T09:07:43;63607.59;;;10.33;54.42
21879;BME280;27908;42.708;23.278;2023-02-20T09:10:09;63652.56;;;10.49;54.65
21879;BME280;27908;42.708;23.278;2023-02-20T09:12:35;63683.09;;;10.44;53.06
21879;BME280;27908;42.708;23.278;2023-02-20T09:15:00;63611.13;;;10.31;53.17
21879;BME280;27908;42.708;23.278;2023-02-20T09:17:27;63590.78;;;10.34;53.63
21879;BME280;27908;42.708;23.278;2023-02-20T09:19:53;63657.59;;;10.42;53.57
21879;BME280;27908;42.708;23.278;2023-02-20T09:22:25;63623.94;;;10.39;52.37
21879;BME280;27908;42.708;23.278;2023-02-20T09:24:52;63651.06;;;10.50;53.71
21879;BME280;27908;42.708;23.278;2023-02-20T09:27:17;63643.06;;;10.67;53.26
21879;BME280;27908;42.708;23.278;2023-02-20T09:29:43;63653.78;;;10.67;53.42
21879;BME280;27908;42.708;23.278;2023-02-20T09:32:09;63673.69;;;10.69;54.12
21879;BME280;27908;42.708;23.278;2023-02-20T09:34:34;63795.63;;;10.79;53.82
21879;BME280;27908;42.708;23.278;2023-02-20T09:37:00;63691.59;;;10.77;53.44
21879;BME280;27908;42.708;23.278;2023-02-20T09:39:26;63698.75;;;10.79;54.02
21879;BME280;27908;42.708;23.278;2023-02-20T09:47:38;63663.50;;;10.69;54.29
21879;BME280;27908;42.708;23.278;2023-02-20T09:50:12;63748.97;;;11.02;53.88
21879;BME280;27908;42.708;23.278;2023-02-20T09:52:40;63745.94;;;11.04;52.80
21879;BME280;27908;42.708;23.278;2023-02-20T09:55:16;63748.44;;;11.00;52.71
21879;BME280;27908;42.708;23.278;2023-02-20T09:57:47;63702.56;;;11.04;51.15
21879;BME280;27908;42.708;23.278;2023-02-20T10:00:34;63726.19;;;11.17;51.14
21879;BME280;27908;42.708;23.278;2023-02-20T10:05:43;63756.94;;;11.32;50.36
21879;BME280;27908;42.708;23.278;2023-02-20T10:08:10;63782.22;;;11.59;50.47
21879;BME280;27908;42.708;23.278;2023-02-20T10:10:39;63746.78;;;11.39;49.13
21879;BME280;27908;42.708;23.278;2023-02-20T10:16:18;63781.97;;;11.36;49.28
21879;BME280;27908;42.708;23.278;2023-02-20T10:24:17;63829.41;;;11.82;47.35
21879;BME280;27908;42.708;23.278;2023-02-20T10:26:47;63884.34;;;12.07;46.91
21879;BME280;27908;42.708;23.278;2023-02-20T10:29:19;63865.25;;;11.92;46.32
21879;BME280;27908;42.708;23.278;2023-02-20T10:31:51;63833.13;;;11.95;46.45
21879;BME280;27908;42.708;23.278;2023-02-20T10:34:32;63790.56;;;11.76;47.28
21879;BME280;27908;42.708;23.278;2023-02-20T10:37:09;63823.31;;;11.83;47.32
21879;BME280;27908;42.708;23.278;2023-02-20T10:39:37;63839.84;;;12.04;46.74
21879;BME280;27908;42.708;23.278;2023-02-20T10:42:15;63816.13;;;11.79;48.33
21879;BME280;27908;42.708;23.278;2023-02-20T10:44:59;63887.03;;;12.22;47.26
21879;BME280;27908;42.708;23.278;2023-02-20T10:47:45;63872.78;;;12.31;46.37
21879;BME280;27908;42.708;23.278;2023-02-20T10:52:54;63876.38;;;12.29;45.94
21879;BME280;27908;42.708;23.278;2023-02-20T10:58:03;63987.88;;;12.82;45.45
21879;BME280;27908;42.708;23.278;2023-02-20T11:00:37;63973.06;;;12.87;45.16
21879;BME280;27908;42.708;23.278;2023-02-20T11:03:08;63968.94;;;12.83;45.51
21879;BME280;27908;42.708;23.278;2023-02-20T11:05:44;63943.34;;;12.81;45.20
21879;BME280;27908;42.708;23.278;2023-02-20T11:08:10;63952.22;;;13.02;45.47
21879;BME280;27908;42.708;23.278;2023-02-20T11:10:36;64055.56;;;13.47;44.74
21879;BME280;27908;42.708;23.278;2023-02-20T11:13:03;64062.47;;;13.24;45.06
21879;BME280;27908;42.708;23.278;2023-02-20T11:15:32;64041.56;;;13.28;45.69
21879;BME280;27908;42.708;23.278;2023-02-20T11:17:58;64050.47;;;13.51;44.31
21879;BME280;27908;42.708;23.278;2023-02-20T11:23:47;64077.09;;;13.52;43.87
21879;BME280;27908;42.708;23.278;2023-02-20T11:26:33;64146.56;;;13.82;43.67
21879;BME280;27908;42.708;23.278;2023-02-20T11:29:09;64150.00;;;13.68;43.66
21879;BME280;27908;42.708;23.278;2023-02-20T11:31:35;64000.63;;;13.31;43.86
21879;BME280;27908;42.708;23.278;2023-02-20T11:34:03;64092.06;;;13.62;43.87
21879;BME280;27908;42.708;23.278;2023-02-20T11:36:37;64141.59;;;13.97;43.41
21879;BME280;27908;42.708;23.278;2023-02-20T11:39:20;64143.47;;;13.79;43.47
21879;BME280;27908;42.708;23.278;2023-02-20T11:41:49;64110.53;;;13.65;43.89
21879;BME280;27908;42.708;23.278;2023-02-20T11:46:43;64189.53;;;14.21;42.98
21879;BME280;27908;42.708;23.278;2023-02-20T11:49:11;64111.13;;;13.73;42.58
21879;BME280;27908;42.708;23.278;2023-02-20T11:51:47;64124.88;;;13.64;43.00
21879;BME280;27908;42.708;23.278;2023-02-20T11:59:43;64081.72;;;13.54;43.80
21879;BME280;27908;42.708;23.278;2023-02-20T12:04:40;64024.38;;;13.53;43.48
21879;BME280;27908;42.708;23.278;2023-02-20T12:09:49;64043.59;;;13.28;43.14
21879;BME280;27908;42.708;23.278;2023-02-20T12:12:16;64053.00;;;13.47;43.32
21879;BME280;27908;42.708;23.278;2023-02-20T12:14:47;64013.31;;;13.18;44.00
21879;BME280;27908;42.708;23.278;2023-02-20T12:20:14;64064.25;;;13.48;43.80
21879;BME280;27908;42.708;23.278;2023-02-20T12:31:04;64043.63;;;13.30;43.90
21879;BME280;27908;42.708;23.278;2023-02-20T12:39:02;64056.84;;;13.21;43.41
21879;BME280;27908;42.708;23.278;2023-02-20T12:44:35;64086.91;;;13.57;43.54
21879;BME280;27908;42.708;23.278;2023-02-20T12:47:21;64119.50;;;13.90;43.67
21879;BME280;27908;42.708;23.278;2023-02-20T12:55:22;64042.13;;;13.36;42.78
21879;BME280;27908;42.708;23.278;2023-02-20T13:00:34;64067.38;;;13.51;42.99
21879;BME280;27908;42.708;23.278;2023-02-20T13:03:10;64085.53;;;13.75;42.94
21879;BME280;27908;42.708;23.278;2023-02-20T13:05:42;64067.91;;;13.53;43.17
21879;BME280;27908;42.708;23.278;2023-02-20T13:13:15;64080.34;;;13.68;43.03
21879;BME280;27908;42.708;23.278;2023-02-20T13:20:56;64046.81;;;13.43;43.26
21879;BME280;27908;42.708;23.278;2023-02-20T13:25:49;64008.00;;;13.01;44.28
21879;BME280;27908;42.708;23.278;2023-02-20T13:28:39;63965.78;;;12.76;44.46
21879;BME280;27908;42.708;23.278;2023-02-20T13:33:47;63886.66;;;12.37;45.75
21879;BME280;27908;42.708;23.278;2023-02-20T14:00:53;63952.22;;;12.50;46.80
21879;BME280;27908;42.708;23.278;2023-02-20T14:06:12;63959.56;;;12.67;46.39
21879;BME280;27908;42.708;23.278;2023-02-20T14:08:43;63980.06;;;12.70;46.44
21879;BME280;27908;42.708;23.278;2023-02-20T14:11:30;63943.19;;;12.66;46.91
21879;BME280;27908;42.708;23.278;2023-02-20T14:13:57;63978.41;;;12.61;46.94
21879;BME280;27908;42.708;23.278;2023-02-20T14:16:30;63972.34;;;12.67;46.81
21879;BME280;27908;42.708;23.278;2023-02-20T14:19:12;63968.91;;;12.81;49.12
21879;BME280;27908;42.708;23.278;2023-02-20T14:21:38;63923.59;;;12.50;46.89
21879;BME280;27908;42.708;23.278;2023-02-20T14:24:23;63845.44;;;12.00;48.51
21879;BME280;27908;42.708;23.278;2023-02-20T14:26:52;63898.81;;;12.26;48.31
21879;BME280;27908;42.708;23.278;2023-02-20T14:31:50;63868.50;;;12.07;49.00
21879;BME280;27908;42.708;23.278;2023-02-20T14:34:27;63841.72;;;11.86;49.68
21879;BME280;27908;42.708;23.278;2023-02-20T14:37:06;63842.63;;;11.75;49.88
21879;BME280;27908;42.708;23.278;2023-02-20T14:42:26;63813.00;;;11.73;50.37
21879;BME280;27908;42.708;23.278;2023-02-20T14:45:01;63833.41;;;11.73;49.70
21879;BME280;27908;42.708;23.278;2023-02-20T14:47:27;63852.38;;;11.79;50.19
21879;BME280;27908;42.708;23.278;2023-02-20T14:49:53;63829.44;;;11.84;49.97
21879;BME280;27908;42.708;23.278;2023-02-20T14:52:31;63846.88;;;11.91;50.06
21879;BME280;27908;42.708;23.278;2023-02-20T14:55:04;63863.13;;;11.82;50.13
21879;BME280;27908;42.708;23.278;2023-02-20T14:57:31;63840.22;;;11.90;50.82
21879;BME280;27908;42.708;23.278;2023-02-20T15:02:41;63772.53;;;11.59;51.34
21879;BME280;27908;42.708;23.278;2023-02-20T15:05:10;63791.34;;;11.53;50.72
21879;BME280;27908;42.708;23.278;2023-02-20T15:07:38;63782.19;;;11.56;50.55
21879;BME280;27908;42.708;23.278;2023-02-20T15:10:24;63825.38;;;11.85;50.11
21879;BME280;27908;42.708;23.278;2023-02-20T15:13:04;63849.91;;;11.89;50.71
21879;BME280;27908;42.708;23.278;2023-02-20T15:15:36;63873.22;;;12.21;50.07
21879;BME280;27908;42.708;23.278;2023-02-20T15:18:10;63912.81;;;12.47;49.50
21879;BME280;27908;42.708;23.278;2023-02-20T15:20:41;63918.88;;;12.38;49.32
21879;BME280;27908;42.708;23.278;2023-02-20T15:23:23;63916.66;;;12.19;48.92
21879;BME280;27908;42.708;23.278;2023-02-20T15:25:49;63813.97;;;11.70;50.36
21879;BME280;27908;42.708;23.278;2023-02-20T15:31:20;63869.56;;;12.13;49.93
21879;BME280;27908;42.708;23.278;2023-02-20T15:33:53;63863.50;;;12.19;49.57
21879;BME280;27908;42.708;23.278;2023-02-20T15:36:22;63843.47;;;12.07;50.21
21879;BME280;27908;42.708;23.278;2023-02-20T15:38:51;63892.19;;;12.27;49.11
21879;BME280;27908;42.708;23.278;2023-02-20T15:41:17;63861.25;;;12.00;49.60
21879;BME280;27908;42.708;23.278;2023-02-20T15:43:48;63824.56;;;11.58;50.84
21879;BME280;27908;42.708;23.278;2023-02-20T15:46:16;63790.53;;;11.25;51.17